createdAt,value
2023-04-12T00:03:13.528Z,2.60
2023-04-12T00:08:18.311Z,3.67
2023-04-12T00:13:21.590Z,3.95
2023-04-12T00:18:25.396Z,3.22
2023-04-12T00:23:27.796Z,2.45
2023-04-12T00:28:31.322Z,3.63
2023-04-12T00:33:33.880Z,3.05
2023-04-12T00:38:36.511Z,3.30
2023-04-12T00:43:41.674Z,2.70
2023-04-12T00:48:44.764Z,3.65
2023-04-12T00:53:46.994Z,2.85
2023-04-12T00:58:50.377Z,4.68
2023-04-12T01:03:54.566Z,2.65
2023-04-12T01:09:04.142Z,2.63
2023-04-12T01:14:11.728Z,3.08
2023-04-12T01:19:35.973Z,2.95
2023-04-12T01:24:46.945Z,2.38
2023-04-12T01:29:51.584Z,3.25
2023-04-12T01:34:54.852Z,2.85
2023-04-12T01:39:56.870Z,2.88
2023-04-12T01:45:00.502Z,2.92
2023-04-12T01:55:12.292Z,2.97
2023-04-12T02:00:17.984Z,3.97
2023-04-12T02:05:20.977Z,1.80
2023-04-12T02:10:28.317Z,3.83
2023-04-12T02:15:32.390Z,2.50
2023-04-12T02:20:35.585Z,3.28
2023-04-12T02:25:38.522Z,3.22
2023-04-12T02:30:41.891Z,3.92
2023-04-12T02:35:44.023Z,4.53
2023-04-12T02:40:45.986Z,2.92
2023-04-12T02:45:49.391Z,3.58
2023-04-12T02:50:51.436Z,3.90
2023-04-12T02:55:53.360Z,3.58
2023-04-12T03:01:00.002Z,3.28
2023-04-12T03:06:02.119Z,2.78
2023-04-12T03:11:04.310Z,2.30
2023-04-12T03:16:23.439Z,3.10
2023-04-12T03:21:25.982Z,3.25
2023-04-12T03:26:27.941Z,2.75
2023-04-12T03:31:31.408Z,3.47
2023-04-12T03:36:33.774Z,4.43
2023-04-12T03:41:35.838Z,3.05
2023-04-12T03:46:39.392Z,3.03
2023-04-12T03:51:42.564Z,5.35
2023-04-12T03:56:46.093Z,3.55
2023-04-12T04:01:49.790Z,3.78
2023-04-12T04:06:52.384Z,3.08
2023-04-12T04:11:54.397Z,3.88
2023-04-12T04:16:57.678Z,2.88
2023-04-12T04:22:02.273Z,4.57
2023-04-12T04:27:04.541Z,4.05
2023-04-12T04:32:08.074Z,4.05
2023-04-12T04:37:10.052Z,4.22
2023-04-12T04:42:12.002Z,2.83
2023-04-12T04:47:15.520Z,3.15
2023-04-12T04:52:18.329Z,2.88
2023-04-12T04:57:21.037Z,3.63
2023-04-12T05:02:26.010Z,4.10
2023-04-12T05:07:28.082Z,2.95
2023-04-12T05:12:31.270Z,3.40
2023-04-12T05:17:34.565Z,4.65
2023-04-12T05:22:36.570Z,2.92
2023-04-12T05:27:38.727Z,2.10
2023-04-12T05:32:42.172Z,3.97
2023-04-12T05:37:44.108Z,3.63
2023-04-12T05:42:46.047Z,3.25
2023-04-12T05:47:49.403Z,6.30
2023-04-12T05:52:51.424Z,2.00
2023-04-12T05:57:54.314Z,5.90
2023-04-12T06:02:58.394Z,5.18
2023-04-12T06:08:00.839Z,4.95
2023-04-12T06:13:02.764Z,2.80
2023-04-12T06:18:07.280Z,4.35
2023-04-12T06:23:09.298Z,4.97
2023-04-12T06:28:11.290Z,3.60
2023-04-12T06:33:15.777Z,4.47
2023-04-12T06:38:17.946Z,4.13
2023-04-12T06:43:20.450Z,4.50
2023-04-12T06:48:23.912Z,5.68
2023-04-12T06:58:27.701Z,4.30
2023-04-12T07:03:33.218Z,4.75
2023-04-12T07:08:36.451Z,4.60
2023-04-12T07:13:38.345Z,5.43
2023-04-12T07:18:41.688Z,4.78
2023-04-12T07:23:43.804Z,5.32
2023-04-12T07:28:45.946Z,5.50
2023-04-12T07:33:49.454Z,5.25
2023-04-12T07:38:55.782Z,4.50
2023-04-12T07:43:58.508Z,4.05
2023-04-12T07:49:01.836Z,3.22
2023-04-12T07:59:06.552Z,4.35
2023-04-12T08:04:09.938Z,3.20
2023-04-12T08:09:12.063Z,3.60
2023-04-12T08:14:14.166Z,2.97
2023-04-12T08:19:18.361Z,3.15
2023-04-12T08:24:20.685Z,2.53
2023-04-12T08:29:22.642Z,2.95
2023-04-12T08:34:26.403Z,2.85
2023-04-12T08:39:28.409Z,2.88
2023-04-12T08:44:38.602Z,2.53
2023-04-12T08:49:41.925Z,2.78
2023-04-12T08:54:43.892Z,2.00
2023-04-12T08:59:49.921Z,3.72
2023-04-12T09:04:54.091Z,2.10
2023-04-12T09:09:58.333Z,2.67
2023-04-12T09:15:09.011Z,2.83
2023-04-12T09:20:25.660Z,1.95
2023-04-12T09:25:37.504Z,1.90
2023-04-12T09:30:42.410Z,2.50
2023-04-12T09:35:46.122Z,1.63
2023-04-12T09:40:48.659Z,1.55
2023-04-12T09:45:50.793Z,2.78
2023-04-12T09:51:01.295Z,2.00
2023-04-12T09:56:04.489Z,2.45
2023-04-12T10:01:09.952Z,3.00
2023-04-12T10:06:13.612Z,1.83
2023-04-12T10:11:15.843Z,2.13
2023-04-12T10:16:20.364Z,2.08
2023-04-12T10:21:23.747Z,2.30
2023-04-12T10:26:25.930Z,2.42
2023-04-12T10:31:32.822Z,2.53
2023-04-12T10:36:58.296Z,2.97
2023-04-12T10:42:18.102Z,3.53
2023-04-12T10:47:59.078Z,2.35
2023-04-12T10:53:22.913Z,1.92
2023-04-12T10:58:57.035Z,2.78
2023-04-12T11:09:19.399Z,1.95
2023-04-12T11:14:28.761Z,2.33
2023-04-12T11:24:38.105Z,2.75
2023-04-12T11:29:40.224Z,2.05
2023-04-12T11:34:44.724Z,1.67
2023-04-12T11:39:51.600Z,2.67
2023-04-12T11:44:58.594Z,2.67
2023-04-12T11:50:02.451Z,2.97
2023-04-12T11:55:08.728Z,2.40
2023-04-12T12:00:11.773Z,2.97
2023-04-12T12:10:31.652Z,1.30
2023-04-12T12:15:44.876Z,2.42
2023-04-12T12:20:49.412Z,2.35
2023-04-12T12:26:00.050Z,1.33
2023-04-12T12:31:10.675Z,1.60
2023-04-12T12:36:14.058Z,2.00
2023-04-12T12:41:18.525Z,2.03
2023-04-12T12:46:20.789Z,2.35
2023-04-12T12:51:22.866Z,2.25
2023-04-12T12:56:26.625Z,1.90
2023-04-12T13:01:28.667Z,1.88
2023-04-12T13:06:31.962Z,2.47
2023-04-12T13:11:35.815Z,1.85
2023-04-12T13:16:37.885Z,2.58
2023-04-12T13:21:39.882Z,2.13
2023-04-12T13:26:43.304Z,2.67
2023-04-12T13:31:45.382Z,2.08
2023-04-12T13:36:47.503Z,2.92
2023-04-12T13:41:51.167Z,2.08
2023-04-12T13:46:53.238Z,1.77
2023-04-12T13:51:55.710Z,2.30
2023-04-12T13:56:59.322Z,2.25
2023-04-12T14:02:01.898Z,2.03
2023-04-12T14:07:03.883Z,2.50
2023-04-12T14:12:07.264Z,2.35
2023-04-12T14:17:09.326Z,2.53
2023-04-12T14:22:11.275Z,2.78
2023-04-12T14:27:16.578Z,1.48
2023-04-12T14:32:19.878Z,2.53
2023-04-12T14:37:21.880Z,2.30
2023-04-12T14:42:25.343Z,2.35
2023-04-12T14:47:27.356Z,3.03
2023-04-12T14:52:29.928Z,3.03
2023-04-12T14:57:34.708Z,2.80
2023-04-12T15:02:36.807Z,2.78
2023-04-12T15:07:38.891Z,2.50
2023-04-12T15:12:42.576Z,2.45
2023-04-12T15:17:45.399Z,2.78
2023-04-12T15:22:47.376Z,2.50
2023-04-12T15:27:50.769Z,3.10
2023-04-12T15:32:53.287Z,2.17
2023-04-12T15:37:55.642Z,2.92
2023-04-12T15:42:59.138Z,2.92
2023-04-12T15:49:00.023Z,3.88
2023-04-12T15:55:00.751Z,3.78
2023-04-12T16:01:02.991Z,2.95
2023-04-12T16:07:04.468Z,3.35
2023-04-12T16:13:05.140Z,2.92
2023-04-12T16:19:08.312Z,2.75
2023-04-12T16:25:09.783Z,3.30
2023-04-12T16:31:11.038Z,3.72
2023-04-12T16:37:13.218Z,3.80
2023-04-12T16:43:13.692Z,2.67
2023-04-12T16:49:14.304Z,2.95
2023-04-12T16:55:16.166Z,3.10
2023-04-12T17:01:17.644Z,3.00
2023-04-12T17:07:19.006Z,4.18
2023-04-12T17:13:21.304Z,4.78
2023-04-12T17:19:21.941Z,4.82
2023-04-12T17:25:25.262Z,5.78
2023-04-12T17:31:31.919Z,5.55
2023-04-12T17:36:34.055Z,5.55
2023-04-12T17:42:34.604Z,5.50
2023-04-12T17:48:37.331Z,5.07
2023-04-12T17:53:39.316Z,7.65
2023-04-12T17:58:43.064Z,12.65
2023-04-12T18:03:47.615Z,6.45
2023-04-12T18:08:49.750Z,4.43
2023-04-12T18:13:52.343Z,7.85
2023-04-12T18:18:55.901Z,5.13
2023-04-12T18:23:58.725Z,4.20
2023-04-12T18:29:00.961Z,3.53
2023-04-12T18:34:04.285Z,3.30
2023-04-12T18:39:08.837Z,3.03
2023-04-12T18:44:13.076Z,2.83
2023-04-12T18:49:16.915Z,3.80
2023-04-12T18:54:18.927Z,3.72
2023-04-12T18:59:21.174Z,2.85
2023-04-12T19:04:24.741Z,6.05
2023-04-12T19:09:26.757Z,3.95
2023-04-12T19:14:30.477Z,6.03
2023-04-12T19:19:33.871Z,9.50
2023-04-12T19:24:36.083Z,5.50
2023-04-12T19:29:38.128Z,3.60
2023-04-12T19:34:41.772Z,4.13
2023-04-12T19:44:45.867Z,3.17
2023-04-12T19:49:49.338Z,3.95
2023-04-12T19:54:52.570Z,4.15
2023-04-12T19:59:55.382Z,3.65
2023-04-12T20:04:58.943Z,2.53
2023-04-12T20:10:03.843Z,2.45
2023-04-12T20:15:08.636Z,2.78
2023-04-12T20:20:14.173Z,3.70
2023-04-12T20:25:16.507Z,3.15
2023-04-12T20:30:22.667Z,2.90
2023-04-12T20:35:26.414Z,2.95
2023-04-12T20:40:29.853Z,2.88
2023-04-12T20:50:43.744Z,2.63
2023-04-12T20:56:45.115Z,2.42
2023-04-12T21:02:46.169Z,2.50
2023-04-12T21:08:50.526Z,3.33
2023-04-12T21:14:51.299Z,3.22
2023-04-12T21:20:16.912Z,3.58
2023-04-12T21:26:14.865Z,3.05
2023-04-12T21:31:47.688Z,2.63
2023-04-12T21:37:48.159Z,3.30
2023-04-12T21:43:50.183Z,2.53
2023-04-12T21:49:52.314Z,3.63
2023-04-12T21:55:52.894Z,2.95
2023-04-12T22:06:07.038Z,1.95
2023-04-12T22:11:10.995Z,3.17
2023-04-12T22:16:16.661Z,3.03
2023-04-12T22:21:18.889Z,3.38
2023-04-12T22:26:20.865Z,2.97
2023-04-12T22:31:33.197Z,1.17
2023-04-12T22:36:37.365Z,1.65
2023-04-12T22:41:41.732Z,1.20
2023-04-12T22:46:48.337Z,1.60
2023-04-12T22:51:50.388Z,1.27
2023-04-12T22:56:52.357Z,1.45
2023-04-12T23:01:55.857Z,2.00
2023-04-12T23:06:57.950Z,0.77
2023-04-12T23:11:59.971Z,1.92
2023-04-12T23:17:03.322Z,1.80
2023-04-12T23:22:06.059Z,1.48
2023-04-12T23:27:08.057Z,1.02
2023-04-12T23:32:12.079Z,1.40
2023-04-12T23:37:15.015Z,1.00
2023-04-12T23:42:17.074Z,1.17
2023-04-12T23:47:20.394Z,1.40
2023-04-12T23:57:24.197Z,1.20
